createdAt,value
2022-12-24T00:01:41.183Z,74.32
2022-12-24T00:04:11.410Z,73.28
2022-12-24T00:06:39.504Z,73.07
2022-12-24T00:09:06.935Z,71.18
2022-12-24T00:11:34.169Z,70.05
2022-12-24T00:14:01.744Z,71.35
2022-12-24T00:16:29.033Z,68.18
2022-12-24T00:18:56.382Z,69.70
2022-12-24T00:21:23.603Z,72.15
2022-12-24T00:23:53.540Z,69.82
2022-12-24T00:26:20.905Z,72.60
2022-12-24T00:28:48.190Z,73.03
2022-12-24T00:31:18.889Z,70.28
2022-12-24T00:33:50.284Z,71.53
2022-12-24T00:36:21.610Z,72.43
2022-12-24T00:38:51.988Z,75.97
2022-12-24T00:41:28.637Z,72.40
2022-12-24T00:44:06.846Z,71.65
2022-12-24T00:46:35.233Z,72.72
2022-12-24T00:49:04.932Z,70.47
2022-12-24T00:51:33.133Z,71.85
2022-12-24T00:54:01.912Z,69.57
2022-12-24T00:56:31.603Z,71.93
2022-12-24T00:58:59.006Z,71.18
2022-12-24T01:01:27.621Z,70.95
2022-12-24T01:04:16.067Z,69.53
2022-12-24T01:06:44.184Z,68.25
2022-12-24T01:09:11.692Z,70.03
2022-12-24T01:11:39.326Z,69.43
2022-12-24T01:14:06.595Z,69.72
2022-12-24T01:16:34.075Z,69.90
2022-12-24T01:19:01.368Z,69.78
2022-12-24T01:21:31.520Z,70.55
2022-12-24T01:24:00.883Z,72.18
2022-12-24T01:26:28.023Z,70.35
2022-12-24T01:28:57.355Z,70.57
2022-12-24T01:31:24.706Z,71.93
2022-12-24T01:33:52.045Z,73.68
2022-12-24T01:36:19.195Z,71.53
2022-12-24T01:38:46.463Z,71.43
2022-12-24T01:41:42.143Z,73.47
2022-12-24T01:44:36.444Z,70.67
2022-12-24T01:47:21.456Z,67.45
2022-12-24T01:49:58.138Z,68.43
2022-12-24T01:52:34.448Z,66.63
2022-12-24T01:55:12.495Z,69.05
2022-12-24T01:57:56.964Z,65.95
2022-12-24T02:00:24.483Z,67.35
2022-12-24T02:02:54.016Z,66.90
2022-12-24T02:05:51.886Z,68.97
2022-12-24T02:08:20.434Z,65.85
2022-12-24T02:10:49.197Z,66.50
2022-12-24T02:13:20.676Z,68.82
2022-12-24T02:16:22.582Z,65.45
2022-12-24T02:19:32.301Z,64.82
2022-12-24T02:22:27.036Z,66.57
2022-12-24T02:25:51.759Z,66.78
2022-12-24T02:29:23.172Z,66.07
2022-12-24T02:32:06.006Z,65.15
2022-12-24T02:34:58.823Z,65.85
2022-12-24T02:37:36.721Z,64.47
2022-12-24T02:40:19.706Z,67.85
2022-12-24T02:42:55.488Z,69.10
2022-12-24T02:47:57.682Z,66.22
2022-12-24T02:50:26.425Z,66.75
2022-12-24T02:52:54.116Z,68.80
2022-12-24T02:55:47.159Z,73.60
2022-12-24T02:59:11.856Z,70.68
2022-12-24T03:02:09.392Z,69.03
2022-12-24T03:05:40.331Z,66.38
2022-12-24T03:08:56.372Z,67.63
2022-12-24T03:11:23.605Z,66.78
2022-12-24T03:13:52.937Z,68.60
2022-12-24T03:16:27.705Z,67.75
2022-12-24T03:18:57.874Z,72.03
2022-12-24T03:21:32.431Z,73.88
2022-12-24T03:24:00.503Z,71.18
2022-12-24T03:26:31.592Z,68.18
2022-12-24T03:28:59.615Z,69.30
2022-12-24T03:31:26.932Z,68.85
2022-12-24T03:33:54.141Z,69.80
2022-12-24T03:36:21.330Z,69.03
2022-12-24T03:38:48.583Z,70.47
2022-12-24T03:41:15.939Z,68.20
2022-12-24T03:43:43.169Z,69.38
2022-12-24T03:46:10.443Z,71.00
2022-12-24T03:48:37.851Z,69.28
2022-12-24T03:51:05.581Z,65.35
2022-12-24T03:53:32.840Z,69.70
2022-12-24T03:56:00.118Z,69.88
2022-12-24T03:58:27.447Z,69.63
2022-12-24T04:00:54.768Z,70.50
2022-12-24T04:03:22.185Z,67.55
2022-12-24T04:06:07.460Z,69.60
2022-12-24T04:08:36.688Z,68.28
2022-12-24T04:11:14.202Z,72.03
2022-12-24T04:13:41.491Z,67.25
2022-12-24T04:16:13.755Z,66.68
2022-12-24T04:18:42.208Z,66.70
2022-12-24T04:21:10.829Z,67.25
2022-12-24T04:23:41.214Z,68.53
2022-12-24T04:26:12.425Z,68.45
2022-12-24T04:28:41.621Z,65.45
2022-12-24T04:31:15.519Z,63.17
2022-12-24T04:33:44.211Z,62.63
2022-12-24T04:36:19.500Z,67.30
2022-12-24T04:38:48.530Z,68.03
2022-12-24T04:41:24.272Z,69.72
2022-12-24T04:43:54.346Z,65.68
2022-12-24T04:46:33.589Z,68.38
2022-12-24T04:49:00.907Z,66.55
2022-12-24T04:51:29.381Z,70.07
2022-12-24T04:53:57.196Z,70.45
2022-12-24T04:56:29.631Z,67.10
2022-12-24T04:58:58.271Z,71.15
2022-12-24T05:01:33.153Z,68.30
2022-12-24T05:04:01.552Z,67.80
2022-12-24T05:06:34.033Z,67.50
2022-12-24T05:09:01.715Z,66.32
2022-12-24T05:11:29.784Z,66.90
2022-12-24T05:13:57.164Z,66.43
2022-12-24T05:16:25.183Z,66.00
2022-12-24T05:18:52.906Z,63.63
2022-12-24T05:21:25.768Z,64.25
2022-12-24T05:24:12.129Z,63.15
2022-12-24T05:26:53.421Z,62.53
2022-12-24T05:29:21.120Z,62.63
2022-12-24T05:31:48.249Z,62.63
2022-12-24T05:34:16.983Z,65.18
2022-12-24T05:36:45.144Z,62.80
2022-12-24T05:39:18.379Z,61.70
2022-12-24T05:41:46.385Z,62.13
2022-12-24T05:44:16.003Z,59.35
2022-12-24T05:46:44.411Z,58.22
2022-12-24T05:49:11.856Z,60.10
2022-12-24T05:51:40.310Z,61.55
2022-12-24T05:54:08.254Z,58.97
2022-12-24T05:56:35.424Z,58.47
2022-12-24T05:59:02.746Z,58.95
2022-12-24T06:01:29.920Z,60.50
2022-12-24T06:03:57.837Z,61.05
2022-12-24T06:06:28.427Z,57.20
2022-12-24T06:08:55.964Z,59.88
2022-12-24T06:11:27.100Z,57.55
2022-12-24T06:13:54.715Z,58.38
2022-12-24T06:16:24.302Z,56.55
2022-12-24T06:18:52.132Z,56.03
2022-12-24T06:21:20.102Z,57.83
2022-12-24T06:23:47.866Z,58.97
2022-12-24T06:26:20.361Z,56.83
2022-12-24T06:28:49.871Z,56.67
2022-12-24T06:31:22.468Z,60.22
2022-12-24T06:33:51.100Z,59.17
2022-12-24T06:36:23.811Z,57.85
2022-12-24T06:38:54.347Z,57.25
2022-12-24T06:41:22.757Z,60.17
2022-12-24T06:43:52.921Z,59.70
2022-12-24T06:46:21.336Z,54.70
2022-12-24T06:48:48.882Z,57.15
2022-12-24T06:51:19.791Z,57.53
2022-12-24T06:53:50.535Z,56.25
2022-12-24T06:56:20.584Z,57.33
2022-12-24T06:58:48.682Z,56.88
2022-12-24T07:01:19.629Z,57.00
2022-12-24T07:03:47.967Z,59.90
2022-12-24T07:06:29.698Z,59.47
2022-12-24T07:08:57.340Z,58.30
2022-12-24T07:11:26.570Z,55.50
2022-12-24T07:13:53.944Z,57.83
2022-12-24T07:16:21.726Z,55.60
2022-12-24T07:18:49.054Z,59.40
2022-12-24T07:21:16.252Z,58.25
2022-12-24T07:23:43.885Z,59.63
2022-12-24T07:26:11.553Z,53.67
2022-12-24T07:28:38.845Z,56.05
2022-12-24T07:31:06.306Z,56.10
2022-12-24T07:33:33.569Z,54.92
2022-12-24T07:36:06.724Z,52.30
2022-12-24T07:38:35.148Z,52.40
2022-12-24T07:41:02.450Z,51.22
2022-12-24T07:43:30.038Z,51.35
2022-12-24T07:45:58.557Z,52.63
2022-12-24T07:48:28.806Z,49.20
2022-12-24T07:50:57.536Z,50.22
2022-12-24T07:53:27.903Z,47.45
2022-12-24T07:55:55.642Z,47.88
2022-12-24T07:58:23.571Z,46.42
2022-12-24T08:00:58.184Z,49.05
2022-12-24T08:03:25.872Z,47.00
2022-12-24T08:05:53.691Z,48.25
2022-12-24T08:08:21.502Z,49.20
2022-12-24T08:10:48.832Z,45.15
2022-12-24T08:13:17.257Z,46.13
2022-12-24T08:15:45.542Z,44.60
2022-12-24T08:18:12.745Z,44.85
2022-12-24T08:20:41.661Z,44.45
2022-12-24T08:23:09.567Z,40.50
2022-12-24T08:25:37.687Z,39.90
2022-12-24T08:28:05.929Z,40.55
2022-12-24T08:30:34.318Z,41.05
2022-12-24T08:33:02.110Z,39.25
2022-12-24T08:35:29.351Z,40.55
2022-12-24T08:37:56.890Z,40.92
2022-12-24T08:40:24.119Z,41.45
2022-12-24T08:42:51.542Z,40.80
2022-12-24T08:45:19.183Z,42.53
2022-12-24T08:47:47.225Z,36.40
2022-12-24T08:50:14.612Z,40.53
2022-12-24T08:52:41.851Z,40.33
2022-12-24T08:55:09.447Z,39.13
2022-12-24T08:57:37.851Z,38.33
2022-12-24T09:00:08.030Z,38.08
2022-12-24T09:02:36.391Z,36.85
2022-12-24T09:05:04.659Z,36.72
2022-12-24T09:07:31.855Z,38.35
2022-12-24T09:09:59.076Z,38.60
2022-12-24T09:12:26.280Z,40.00
2022-12-24T09:14:59.614Z,39.05
2022-12-24T09:17:30.212Z,40.70
2022-12-24T09:19:57.401Z,40.92
2022-12-24T09:22:24.543Z,40.75
2022-12-24T09:24:54.784Z,42.00
2022-12-24T09:27:22.644Z,41.28
2022-12-24T09:29:49.972Z,42.13
2022-12-24T09:32:17.500Z,42.65
2022-12-24T09:34:44.959Z,45.35
2022-12-24T09:37:12.126Z,45.45
2022-12-24T09:39:39.328Z,48.00
2022-12-24T09:42:53.822Z,44.72
2022-12-24T09:45:36.014Z,49.33
2022-12-24T09:48:16.027Z,47.60
2022-12-24T09:51:12.037Z,46.70
2022-12-24T09:54:20.762Z,47.28
2022-12-24T09:56:49.477Z,46.72
2022-12-24T09:59:41.308Z,49.60
2022-12-24T10:02:19.642Z,39.63
2022-12-24T10:04:49.127Z,40.17
2022-12-24T10:07:55.007Z,38.13
2022-12-24T10:10:52.147Z,37.95
2022-12-24T10:14:03.916Z,39.13
2022-12-24T10:17:15.614Z,44.85
2022-12-24T10:20:33.028Z,41.33
2022-12-24T10:23:49.216Z,44.03
2022-12-24T10:26:28.020Z,42.28
2022-12-24T10:29:06.373Z,46.38
2022-12-24T10:31:40.301Z,47.25
2022-12-24T10:34:25.115Z,48.70
2022-12-24T10:36:52.363Z,47.13
2022-12-24T10:39:24.662Z,44.75
2022-12-24T10:41:57.733Z,44.28
2022-12-24T10:44:31.215Z,40.10
2022-12-24T10:46:59.447Z,43.13
2022-12-24T10:49:39.796Z,42.80
2022-12-24T10:52:15.660Z,41.08
2022-12-24T10:55:17.852Z,41.30
2022-12-24T10:58:02.908Z,44.92
2022-12-24T11:00:35.963Z,40.13
2022-12-24T11:03:13.171Z,40.83
2022-12-24T11:05:41.015Z,45.42
2022-12-24T11:08:20.063Z,42.05
2022-12-24T11:11:08.588Z,43.65
2022-12-24T11:13:46.463Z,42.30
2022-12-24T11:16:31.041Z,42.22
2022-12-24T11:19:04.094Z,38.53
2022-12-24T11:21:40.722Z,39.53
2022-12-24T11:24:14.062Z,40.30
2022-12-24T11:26:44.505Z,39.00
2022-12-24T11:29:29.960Z,40.10
2022-12-24T11:32:23.427Z,41.65
2022-12-24T11:34:50.679Z,44.60
2022-12-24T11:37:24.627Z,48.88
2022-12-24T11:39:59.588Z,46.97
2022-12-24T11:42:38.045Z,51.58
2022-12-24T11:45:19.796Z,50.20
2022-12-24T11:47:47.169Z,51.97
2022-12-24T11:50:31.776Z,53.10
2022-12-24T11:53:19.119Z,54.95
2022-12-24T11:56:02.081Z,50.13
2022-12-24T11:58:59.972Z,49.72
2022-12-24T12:02:02.389Z,49.47
2022-12-24T12:04:34.818Z,50.28
2022-12-24T12:07:19.195Z,52.97
2022-12-24T12:09:59.653Z,51.40
2022-12-24T12:12:34.841Z,50.15
2022-12-24T12:15:26.070Z,50.47
2022-12-24T12:18:42.519Z,53.22
2022-12-24T12:21:23.568Z,51.40
2022-12-24T12:24:04.549Z,51.70
2022-12-24T12:26:33.250Z,56.00
2022-12-24T12:29:32.215Z,56.17
2022-12-24T12:32:17.089Z,53.38
2022-12-24T12:35:16.782Z,46.97
2022-12-24T12:37:56.059Z,53.28
2022-12-24T12:40:41.411Z,52.83
2022-12-24T12:43:38.053Z,53.90
2022-12-24T12:46:46.543Z,57.95
2022-12-24T12:49:43.865Z,62.20
2022-12-24T12:52:49.175Z,63.70
2022-12-24T12:55:43.351Z,60.53
2022-12-24T12:58:27.910Z,59.88
2022-12-24T13:01:15.661Z,61.00
2022-12-24T13:04:16.380Z,63.38
2022-12-24T13:07:34.255Z,61.60
2022-12-24T13:10:37.750Z,65.95
2022-12-24T13:13:53.950Z,65.10
2022-12-24T13:16:45.138Z,66.85
2022-12-24T13:19:42.478Z,67.10
2022-12-24T13:22:17.703Z,69.07
2022-12-24T13:24:54.753Z,70.82
2022-12-24T13:27:29.345Z,72.57
2022-12-24T13:30:32.818Z,71.60
2022-12-24T13:33:00.174Z,67.53
2022-12-24T13:35:37.617Z,71.60
2022-12-24T13:38:28.397Z,70.85
2022-12-24T13:40:56.353Z,70.28
2022-12-24T13:43:23.494Z,73.22
2022-12-24T13:45:52.168Z,79.10
2022-12-24T13:48:33.661Z,79.18
2022-12-24T13:51:20.510Z,81.25
2022-12-24T13:53:49.725Z,77.07
2022-12-24T13:56:16.783Z,81.18
2022-12-24T13:59:34.543Z,82.05
2022-12-24T14:02:06.077Z,76.80
2022-12-24T14:04:36.457Z,77.47
2022-12-24T14:07:05.523Z,82.20
2022-12-24T14:09:33.932Z,81.90
2022-12-24T14:12:04.090Z,79.97
2022-12-24T14:14:40.635Z,84.35
2022-12-24T14:17:26.477Z,80.85
2022-12-24T14:20:00.669Z,81.82
2022-12-24T14:22:56.875Z,84.32
2022-12-24T14:25:24.301Z,82.47
2022-12-24T14:28:04.560Z,85.05
2022-12-24T14:30:32.474Z,82.35
2022-12-24T14:32:59.792Z,83.97
2022-12-24T14:35:37.379Z,80.80
2022-12-24T14:38:18.702Z,82.78
2022-12-24T14:41:19.183Z,82.57
2022-12-24T14:44:00.376Z,83.38
2022-12-24T14:46:58.758Z,83.15
2022-12-24T14:50:21.779Z,81.63
2022-12-24T14:53:48.636Z,83.50
2022-12-24T14:56:20.974Z,82.97
2022-12-24T14:58:49.272Z,83.57
2022-12-24T15:01:30.957Z,84.15
2022-12-24T15:04:06.116Z,84.97
2022-12-24T15:06:40.136Z,84.73
2022-12-24T15:09:26.894Z,84.93
2022-12-24T15:12:03.890Z,87.15
2022-12-24T15:14:41.792Z,88.10
2022-12-24T15:17:12.378Z,85.85
2022-12-24T15:19:45.160Z,90.40
2022-12-24T15:22:27.598Z,90.03
2022-12-24T15:24:55.408Z,90.45
2022-12-24T15:27:27.599Z,90.80
2022-12-24T15:29:58.249Z,90.15
2022-12-24T15:32:25.741Z,90.88
2022-12-24T15:34:55.517Z,94.32
2022-12-24T15:37:32.336Z,93.80
2022-12-24T15:40:22.959Z,92.82
2022-12-24T15:42:51.448Z,93.50
2022-12-24T15:45:30.542Z,93.45
2022-12-24T15:48:10.065Z,93.43
2022-12-24T15:50:46.109Z,94.57
2022-12-24T15:53:30.967Z,96.07
2022-12-24T15:56:11.567Z,100.38
2022-12-24T15:58:45.621Z,99.28
2022-12-24T16:01:16.159Z,97.93
2022-12-24T16:03:52.137Z,100.75
2022-12-24T16:06:22.035Z,103.50
2022-12-24T16:08:51.004Z,110.82
2022-12-24T16:11:46.228Z,105.13
2022-12-24T16:14:20.195Z,103.00
2022-12-24T16:16:52.781Z,107.15
2022-12-24T16:19:39.744Z,106.15
2022-12-24T16:22:26.430Z,102.85
2022-12-24T16:24:55.480Z,105.28
2022-12-24T16:27:23.000Z,103.05
2022-12-24T16:29:50.366Z,103.32
2022-12-24T16:32:35.263Z,103.45
2022-12-24T16:35:07.474Z,101.15
2022-12-24T16:37:35.749Z,101.40
2022-12-24T16:40:03.058Z,104.97
2022-12-24T16:42:50.623Z,106.40
2022-12-24T16:45:17.858Z,103.13
2022-12-24T16:47:45.026Z,101.60
2022-12-24T16:50:16.801Z,101.10
2022-12-24T16:52:44.700Z,100.70
2022-12-24T16:55:15.353Z,104.07
2022-12-24T16:57:44.073Z,100.15
2022-12-24T17:00:22.068Z,103.38
2022-12-24T17:02:50.229Z,101.55
2022-12-24T17:05:18.604Z,103.72
2022-12-24T17:07:45.878Z,99.57
2022-12-24T17:10:14.449Z,106.57
2022-12-24T17:12:43.918Z,104.65
2022-12-24T17:15:11.618Z,103.80
2022-12-24T17:17:38.965Z,104.47
2022-12-24T17:20:07.730Z,104.03
2022-12-24T17:22:36.237Z,104.47
2022-12-24T17:25:05.324Z,103.53
2022-12-24T17:27:32.959Z,103.40
2022-12-24T17:30:00.310Z,105.03
2022-12-24T17:32:27.598Z,99.28
2022-12-24T17:34:54.802Z,104.95
2022-12-24T17:37:22.084Z,102.57
2022-12-24T17:39:49.372Z,105.22
2022-12-24T17:42:16.561Z,106.75
2022-12-24T17:44:43.975Z,102.65
2022-12-24T17:47:11.311Z,111.82
2022-12-24T17:49:38.700Z,104.93
2022-12-24T17:52:06.103Z,106.50
2022-12-24T17:54:33.535Z,102.50
2022-12-24T17:57:01.714Z,103.10
2022-12-24T17:59:28.955Z,100.10
2022-12-24T18:01:56.429Z,102.18
2022-12-24T18:04:23.668Z,101.70
2022-12-24T18:06:52.005Z,99.88
2022-12-24T18:09:22.156Z,98.63
2022-12-24T18:11:49.330Z,103.20
2022-12-24T18:14:16.522Z,101.47
2022-12-24T18:16:44.896Z,100.60
2022-12-24T18:19:12.612Z,103.65
2022-12-24T18:21:41.049Z,98.68
2022-12-24T18:24:09.121Z,97.78
2022-12-24T18:26:36.448Z,94.72
2022-12-24T18:29:04.724Z,102.47
2022-12-24T18:31:34.032Z,98.15
2022-12-24T18:34:05.489Z,97.20
2022-12-24T18:36:33.671Z,96.93
2022-12-24T18:39:01.622Z,98.68
2022-12-24T18:41:31.346Z,100.57
2022-12-24T18:43:59.634Z,98.07
2022-12-24T18:46:32.476Z,96.50
2022-12-24T18:49:01.535Z,95.45
2022-12-24T18:51:35.317Z,93.28
2022-12-24T18:54:04.553Z,92.15
2022-12-24T18:56:32.315Z,90.55
2022-12-24T18:59:03.033Z,85.28
2022-12-24T19:01:34.933Z,83.32
2022-12-24T19:04:02.760Z,84.70
2022-12-24T19:06:30.343Z,84.25
2022-12-24T19:08:59.740Z,80.85
2022-12-24T19:11:32.260Z,82.85
2022-12-24T19:14:01.361Z,78.75
2022-12-24T19:16:33.226Z,76.30
2022-12-24T19:19:02.544Z,75.80
2022-12-24T19:21:29.784Z,72.30
2022-12-24T19:23:57.176Z,73.63
2022-12-24T19:26:25.033Z,73.38
2022-12-24T19:28:53.393Z,74.15
2022-12-24T19:31:25.744Z,70.70
2022-12-24T19:33:56.955Z,69.35
2022-12-24T19:36:29.225Z,69.20
2022-12-24T19:38:58.493Z,69.45
2022-12-24T19:41:31.047Z,70.82
2022-12-24T19:44:02.061Z,69.88
2022-12-24T19:46:36.674Z,71.68
2022-12-24T19:49:08.026Z,70.43
2022-12-24T19:51:35.920Z,70.28
2022-12-24T19:54:06.133Z,69.30
2022-12-24T19:56:33.837Z,68.82
2022-12-24T19:59:03.141Z,69.75
2022-12-24T20:01:34.661Z,70.00
2022-12-24T20:04:03.871Z,69.13
2022-12-24T20:06:35.086Z,71.28
2022-12-24T20:09:07.180Z,70.88
2022-12-24T20:11:35.477Z,68.72
2022-12-24T20:14:05.702Z,67.78
2022-12-24T20:16:34.187Z,69.55
2022-12-24T20:19:06.190Z,71.30
2022-12-24T20:21:34.254Z,71.45
2022-12-24T20:24:01.594Z,70.55
2022-12-24T20:26:30.038Z,71.00
2022-12-24T20:29:02.735Z,72.30
2022-12-24T20:31:30.881Z,67.93
2022-12-24T20:34:01.560Z,68.70
2022-12-24T20:36:31.105Z,66.90
2022-12-24T20:39:00.230Z,67.30
2022-12-24T20:41:30.241Z,67.90
2022-12-24T20:44:01.923Z,65.82
2022-12-24T20:46:31.034Z,68.20
2022-12-24T20:48:58.596Z,66.82
2022-12-24T20:51:28.509Z,69.78
2022-12-24T20:53:59.791Z,67.60
2022-12-24T20:56:27.492Z,66.15
2022-12-24T20:58:54.986Z,66.80
2022-12-24T21:01:26.166Z,61.50
2022-12-24T21:03:56.763Z,61.80
2022-12-24T21:06:25.205Z,61.67
2022-12-24T21:08:54.167Z,61.75
2022-12-24T21:11:41.429Z,62.47
2022-12-24T21:16:39.249Z,58.75
2022-12-24T21:19:10.148Z,59.60
2022-12-24T21:21:38.118Z,61.33
2022-12-24T21:24:06.387Z,58.20
2022-12-24T21:26:34.487Z,59.20
2022-12-24T21:29:04.440Z,59.15
2022-12-24T21:31:32.628Z,61.47
2022-12-24T21:34:00.097Z,62.22
2022-12-24T21:36:27.284Z,61.03
2022-12-24T21:38:55.087Z,58.70
2022-12-24T21:41:23.669Z,58.92
2022-12-24T21:43:50.952Z,58.63
2022-12-24T21:46:24.852Z,66.15
2022-12-24T21:49:13.801Z,60.30
2022-12-24T21:51:44.024Z,60.15
2022-12-24T21:54:23.465Z,59.42
2022-12-24T21:57:12.611Z,58.83
2022-12-24T21:59:40.204Z,58.63
2022-12-24T22:02:13.997Z,59.10
2022-12-24T22:04:42.128Z,57.03
2022-12-24T22:07:46.251Z,58.78
2022-12-24T22:10:33.034Z,59.03
2022-12-24T22:13:05.994Z,60.80
2022-12-24T22:15:35.136Z,62.90
2022-12-24T22:18:02.985Z,61.80
2022-12-24T22:20:30.153Z,63.10
2022-12-24T22:22:57.311Z,60.90
2022-12-24T22:25:24.541Z,62.25
2022-12-24T22:27:52.060Z,64.50
2022-12-24T22:30:19.509Z,65.72
2022-12-24T22:32:47.087Z,65.10
2022-12-24T22:35:14.522Z,66.47
2022-12-24T22:37:41.760Z,64.30
2022-12-24T22:40:10.882Z,65.88
2022-12-24T22:42:40.888Z,65.38
2022-12-24T22:45:12.571Z,66.40
2022-12-24T22:47:43.029Z,65.07
2022-12-24T22:50:10.845Z,65.95
2022-12-24T22:52:38.173Z,63.03
2022-12-24T22:55:06.489Z,61.00
2022-12-24T22:57:33.725Z,57.92
2022-12-24T23:00:00.958Z,59.05
2022-12-24T23:02:29.183Z,57.08
2022-12-24T23:04:56.932Z,55.38
2022-12-24T23:07:24.734Z,59.17
2022-12-24T23:09:51.938Z,60.17
2022-12-24T23:12:39.053Z,61.97
2022-12-24T23:15:07.472Z,60.95
2022-12-24T23:17:34.763Z,59.38
2022-12-24T23:20:03.779Z,61.03
2022-12-24T23:22:31.034Z,57.17
2022-12-24T23:24:58.332Z,59.40
2022-12-24T23:27:25.591Z,55.63
2022-12-24T23:29:52.756Z,56.85
2022-12-24T23:32:19.918Z,56.65
2022-12-24T23:34:47.068Z,59.88
2022-12-24T23:37:14.198Z,58.03
2022-12-24T23:39:41.480Z,55.90
2022-12-24T23:42:08.608Z,55.08
2022-12-24T23:44:35.740Z,53.50
2022-12-24T23:47:03.003Z,55.63
2022-12-24T23:49:30.235Z,53.50
2022-12-24T23:51:57.404Z,55.33
2022-12-24T23:54:24.649Z,54.00
2022-12-24T23:56:51.955Z,53.22
2022-12-24T23:59:19.135Z,57.58
